Time;durP1;ratioP1;P1;durP2;ratioP2;P2;SDS_P1;SDS_P2;PMS_P1;PMS_P2;Temp;Humidity;BMP_temperature;BMP_pressure;BME280_temperature;BME280_humidity;BME280_pressure;Samples;Min_cycle;Max_cycle;Signal;HPM_P1;HPM_P2
2022/03/10 00:02:10;;;;;;;3.03;1.60;;;18.40;49.20;;;;;;5052191;28;20208;-85
2022/03/10 00:04:36;;;;;;;3.05;1.60;;;18.40;49.60;;;;;;5051812;28;20158;-83
2022/03/10 00:07:03;;;;;;;3.33;1.90;;;18.40;49.50;;;;;;5051844;28;20162;-84
2022/03/10 00:09:29;;;;;;;2.70;1.60;;;18.40;49.40;;;;;;5051690;28;20177;-85
2022/03/10 00:11:55;;;;;;;3.47;1.80;;;18.40;49.50;;;;;;5035151;28;20186;-85
2022/03/10 00:14:24;;;;;;;2.15;1.75;;;18.40;49.50;;;;;;5051781;28;20617;-85
2022/03/10 00:16:52;;;;;;;2.72;1.60;;;18.40;49.40;;;;;;5034538;28;20186;-86
2022/03/10 00:19:20;;;;;;;4.10;1.85;;;18.40;49.60;;;;;;5034309;28;20178;-85
2022/03/10 00:21:49;;;;;;;3.03;1.88;;;18.40;49.50;;;;;;5034242;28;20174;-85
2022/03/10 00:24:16;;;;;;;2.60;1.85;;;18.30;49.50;;;;;;5034449;28;20186;-85
2022/03/10 00:26:42;;;;;;;2.50;1.50;;;18.30;49.80;;;;;;5051661;28;20229;-85
2022/03/10 00:29:07;;;;;;;2.25;1.80;;;18.30;49.50;;;;;;5051638;28;20151;-85
2022/03/10 00:31:34;;;;;;;4.88;1.80;;;18.30;50.00;;;;;;5051450;28;20572;-83
2022/03/10 00:33:59;;;;;;;2.47;1.60;;;18.30;50.00;;;;;;5051682;28;20169;-84
2022/03/10 00:36:25;;;;;;;3.78;2.40;;;18.30;49.80;;;;;;5051133;28;20226;-84
2022/03/10 00:38:51;;;;;;;2.65;1.60;;;18.30;50.00;;;;;;5068145;28;20174;-86
2022/03/10 00:41:16;;;;;;;5.05;2.03;;;18.20;49.70;;;;;;5051745;28;20190;-85
2022/03/10 00:43:42;;;;;;;3.28;1.48;;;18.30;49.80;;;;;;5035035;28;20208;-85
2022/03/10 00:46:07;;;;;;;5.43;1.80;;;18.30;50.00;;;;;;5051461;28;20154;-84
2022/03/10 00:48:33;;;;;;;2.90;1.83;;;18.30;49.90;;;;;;5052630;28;20166;-85
2022/03/10 00:51:00;;;;;;;2.30;1.55;;;18.30;50.10;;;;;;5055071;28;20273;-84
2022/03/10 00:53:29;;;;;;;2.25;1.40;;;18.30;49.50;;;;;;5056436;28;20154;-84
2022/03/10 00:55:57;;;;;;;2.85;1.85;;;18.30;49.60;;;;;;5037741;28;20178;-84
2022/03/10 00:58:26;;;;;;;4.35;1.88;;;18.30;49.60;;;;;;5037591;28;20177;-84
2022/03/10 01:00:52;;;;;;;3.75;1.75;;;18.20;49.90;;;;;;5037830;28;20192;-85
2022/03/10 01:03:18;;;;;;;2.40;1.50;;;18.20;49.70;;;;;;5054968;28;20154;-86
2022/03/10 01:05:44;;;;;;;2.08;1.73;;;18.20;49.60;;;;;;5054782;28;20662;-84
2022/03/10 01:08:09;;;;;;;3.45;1.60;;;18.30;49.60;;;;;;5054931;28;20206;-84
2022/03/10 01:10:35;;;;;;;4.00;1.95;;;18.30;49.70;;;;;;5071700;28;20205;-84
2022/03/10 01:13:03;;;;;;;3.67;1.42;;;18.20;49.70;;;;;;5054821;28;20161;-83
2022/03/10 01:15:31;;;;;;;3.92;1.60;;;18.20;49.90;;;;;;5037469;28;20185;-85
2022/03/10 01:17:58;;;;;;;2.88;1.83;;;18.20;50.10;;;;;;5037262;28;20186;-84
2022/03/10 01:20:26;;;;;;;2.92;1.85;;;18.20;50.00;;;;;;5037483;28;20199;-85
2022/03/10 01:22:54;;;;;;;2.15;1.77;;;18.20;50.10;;;;;;5037242;28;20186;-83
2022/03/10 01:25:21;;;;;;;3.42;1.85;;;18.20;50.20;;;;;;5037296;28;20178;-84
2022/03/10 01:27:49;;;;;;;3.65;1.90;;;18.20;50.10;;;;;;5037040;28;20182;-85
2022/03/10 01:30:16;;;;;;;3.65;1.65;;;18.20;49.80;;;;;;5037127;28;20221;-85
2022/03/10 01:32:42;;;;;;;1.88;1.45;;;18.20;50.10;;;;;;5037088;28;20178;-84
2022/03/10 01:35:08;;;;;;;3.67;1.90;;;18.20;50.20;;;;;;5054043;28;20213;-83
2022/03/10 01:37:36;;;;;;;3.15;1.80;;;18.20;50.00;;;;;;5054480;28;20647;-85
2022/03/10 01:40:07;;;;;;;1.70;1.42;;;18.20;50.00;;;;;;5054776;28;20648;-83
2022/03/10 01:42:33;;;;;;;3.53;1.80;;;18.20;50.10;;;;;;5054043;28;20177;-84
2022/03/10 01:44:58;;;;;;;2.92;1.70;;;18.20;50.70;;;;;;5054108;28;20155;-84
2022/03/10 01:47:24;;;;;;;3.05;1.77;;;18.10;50.20;;;;;;5054309;28;20216;-85
2022/03/10 01:49:50;;;;;;;2.05;1.50;;;18.10;50.30;;;;;;5037821;28;20178;-83
2022/03/10 01:52:16;;;;;;;2.05;1.65;;;18.10;50.20;;;;;;5053954;28;20191;-82
2022/03/10 01:54:42;;;;;;;2.22;1.67;;;18.10;50.20;;;;;;5054053;28;20518;-83
2022/03/10 01:57:10;;;;;;;3.72;1.98;;;18.10;50.30;;;;;;5054255;28;20678;-83
2022/03/10 01:59:38;;;;;;;2.60;1.90;;;18.10;50.30;;;;;;5036158;28;20186;-84
2022/03/10 02:02:06;;;;;;;3.72;1.80;;;18.10;50.30;;;;;;5036107;28;20209;-84
2022/03/10 02:04:33;;;;;;;2.72;1.90;;;18.10;50.30;;;;;;5036675;28;20602;-84
2022/03/10 02:07:00;;;;;;;3.35;1.80;;;18.10;50.40;;;;;;5036440;28;20510;-83
2022/03/10 02:12:10;;;;;;;3.67;1.80;;;18.00;50.20;;;;;;5038770;28;20197;-84
2022/03/10 02:17:20;;;;;;;1.90;1.48;;;18.00;50.20;;;;;;5053619;28;20528;-83
2022/03/10 02:19:50;;;;;;;3.60;1.95;;;18.10;50.40;;;;;;5053734;28;20631;-84
2022/03/10 02:22:17;;;;;;;2.83;1.65;;;18.10;50.10;;;;;;5053274;28;20166;-82
2022/03/10 02:24:44;;;;;;;2.85;1.60;;;18.10;50.30;;;;;;5052641;28;20181;-84
2022/03/10 02:27:18;;;;;;;2.22;1.60;;;18.10;50.10;;;;;;5035989;28;20243;-83
2022/03/10 02:29:45;;;;;;;3.25;1.58;;;18.10;50.20;;;;;;5036816;28;20269;-85
2022/03/10 02:32:11;;;;;;;1.88;1.45;;;18.10;50.20;;;;;;5053171;28;20166;-84
2022/03/10 02:34:37;;;;;;;2.85;1.45;;;18.10;50.50;;;;;;5053142;28;20154;-84
2022/03/10 02:37:03;;;;;;;4.38;1.95;;;18.10;50.40;;;;;;5056438;28;20561;-84
2022/03/10 02:39:30;;;;;;;2.80;1.73;;;18.10;50.50;;;;;;5056500;28;20153;-83
2022/03/10 02:41:56;;;;;;;1.92;1.40;;;18.10;50.30;;;;;;5056139;28;20215;-85
2022/03/10 02:44:23;;;;;;;2.78;1.70;;;18.10;50.40;;;;;;5039627;28;20162;-84
2022/03/10 02:46:50;;;;;;;2.10;1.90;;;18.10;50.20;;;;;;5039055;28;20181;-85
2022/03/10 02:49:17;;;;;;;3.78;1.67;;;18.10;50.10;;;;;;5074046;28;20158;-85
2022/03/10 02:51:44;;;;;;;3.10;1.75;;;18.10;50.50;;;;;;5038903;28;20208;-85
2022/03/10 02:54:10;;;;;;;2.72;1.65;;;18.10;50.50;;;;;;5022409;28;20230;-84
2022/03/10 02:56:36;;;;;;;1.83;1.40;;;18.00;50.50;;;;;;5056136;28;20153;-83
2022/03/10 02:59:02;;;;;;;2.55;1.80;;;18.00;50.40;;;;;;5039527;28;20168;-84
2022/03/10 03:01:29;;;;;;;2.80;1.60;;;18.00;50.00;;;;;;5055951;28;20176;-85
2022/03/10 03:03:55;;;;;;;2.67;1.85;;;18.10;50.50;;;;;;5056226;28;20189;-84
2022/03/10 03:06:21;;;;;;;2.55;1.73;;;18.00;50.30;;;;;;5055807;28;20162;-85
2022/03/10 03:08:47;;;;;;;3.22;1.75;;;18.00;50.40;;;;;;5055916;28;20180;-86
2022/03/10 03:11:13;;;;;;;3.03;1.50;;;18.00;50.30;;;;;;5072819;28;20182;-83
2022/03/10 03:13:40;;;;;;;2.97;1.55;;;18.00;50.50;;;;;;5055967;28;20242;-84
2022/03/10 03:16:06;;;;;;;2.13;1.50;;;18.00;50.40;;;;;;5055772;28;20177;-83
2022/03/10 03:18:32;;;;;;;2.47;1.58;;;18.00;50.40;;;;;;5055753;28;20158;-83
2022/03/10 03:20:57;;;;;;;2.13;1.60;;;18.00;50.10;;;;;;5038892;28;20620;-83
2022/03/10 03:23:23;;;;;;;2.22;1.30;;;18.00;50.30;;;;;;5055738;28;20165;-85
2022/03/10 03:25:50;;;;;;;2.25;1.70;;;18.00;50.20;;;;;;5055538;28;20513;-84
2022/03/10 03:28:16;;;;;;;2.00;1.63;;;18.10;50.60;;;;;;5055533;28;20161;-85
2022/03/10 03:30:41;;;;;;;2.42;1.38;;;18.00;50.20;;;;;;5055726;28;20195;-83
2022/03/10 03:33:07;;;;;;;3.65;1.80;;;17.90;50.40;;;;;;5055530;28;20189;-83
2022/03/10 03:35:33;;;;;;;2.30;1.63;;;18.10;50.70;;;;;;5073365;28;20680;-83
2022/03/10 03:37:59;;;;;;;1.83;1.55;;;18.00;50.50;;;;;;5073189;28;20173;-84
2022/03/10 03:40:25;;;;;;;2.95;1.60;;;18.00;50.50;;;;;;5055648;28;20176;-84
2022/03/10 03:42:51;;;;;;;4.55;1.58;;;18.00;50.50;;;;;;5055440;28;20157;-83
2022/03/10 03:45:17;;;;;;;2.53;1.38;;;18.00;50.60;;;;;;5039284;28;20180;-83
2022/03/10 03:47:42;;;;;;;3.78;1.50;;;18.00;50.40;;;;;;5055763;28;20157;-84
2022/03/10 03:50:09;;;;;;;2.70;1.60;;;17.90;50.60;;;;;;5073402;28;20247;-84
2022/03/10 03:52:34;;;;;;;4.80;1.60;;;18.00;50.50;;;;;;5056383;28;20207;-85
2022/03/10 03:55:00;;;;;;;2.97;1.50;;;18.00;50.60;;;;;;5061750;28;20154;-84
2022/03/10 03:57:26;;;;;;;3.08;1.50;;;18.00;50.30;;;;;;5063934;28;20169;-84
2022/03/10 03:59:52;;;;;;;1.70;1.58;;;18.00;50.60;;;;;;5063466;28;20161;-83
2022/03/10 04:02:17;;;;;;;1.48;1.30;;;17.90;50.50;;;;;;5063255;28;20166;-85
2022/03/10 04:04:43;;;;;;;3.05;1.77;;;17.90;50.60;;;;;;5062730;28;20165;-83
2022/03/10 04:07:10;;;;;;;2.20;1.60;;;18.00;50.40;;;;;;5056639;28;20154;-84
2022/03/10 04:09:40;;;;;;;2.05;1.20;;;18.00;50.40;;;;;;5022532;28;20252;-84
2022/03/10 04:12:10;;;;;;;3.45;1.50;;;18.00;50.50;;;;;;5039389;28;20579;-85
2022/03/10 04:14:38;;;;;;;2.00;1.55;;;18.00;50.50;;;;;;5041125;28;20231;-84
2022/03/10 04:17:07;;;;;;;3.55;1.77;;;18.00;50.70;;;;;;5026427;28;20181;-84
2022/03/10 04:19:34;;;;;;;2.38;1.67;;;17.90;50.70;;;;;;5048900;28;20181;-83
2022/03/10 04:22:01;;;;;;;3.97;1.73;;;17.90;50.50;;;;;;5043392;28;20643;-82
2022/03/10 04:24:27;;;;;;;2.55;1.70;;;18.00;50.70;;;;;;5051803;28;20185;-83
2022/03/10 04:26:52;;;;;;;3.47;1.65;;;17.90;50.40;;;;;;5062022;28;20161;-84
2022/03/10 04:29:18;;;;;;;2.90;1.85;;;17.90;50.50;;;;;;5059215;28;20290;-84
2022/03/10 04:31:44;;;;;;;1.92;1.45;;;17.90;50.50;;;;;;5058782;28;20216;-83
2022/03/10 04:34:09;;;;;;;2.55;1.55;;;18.00;50.40;;;;;;5058901;28;20632;-84
2022/03/10 04:36:35;;;;;;;2.08;1.67;;;17.90;50.60;;;;;;5058679;28;20634;-84
2022/03/10 04:39:02;;;;;;;2.00;1.30;;;17.90;50.60;;;;;;5058691;28;20667;-83
2022/03/10 04:41:27;;;;;;;1.70;1.40;;;17.90;50.70;;;;;;5042212;28;20171;-84
2022/03/10 04:43:54;;;;;;;1.98;1.50;;;17.90;50.60;;;;;;5058530;28;20252;-83
2022/03/10 04:46:21;;;;;;;1.52;1.40;;;17.90;50.60;;;;;;5058501;28;20165;-83
2022/03/10 04:48:47;;;;;;;1.80;1.40;;;17.90;50.60;;;;;;5058512;28;20161;-83
2022/03/10 04:51:13;;;;;;;3.33;1.67;;;17.90;50.50;;;;;;5058455;28;20181;-84
2022/03/10 04:53:43;;;;;;;3.28;1.70;;;17.90;50.40;;;;;;5058368;28;20165;-85
2022/03/10 04:56:08;;;;;;;1.25;1.15;;;17.90;50.60;;;;;;5040793;28;20652;-85
2022/03/10 04:58:34;;;;;;;2.22;1.42;;;17.90;50.50;;;;;;5041665;28;20264;-84
2022/03/10 05:00:59;;;;;;;3.05;1.60;;;17.80;50.70;;;;;;5058197;28;20545;-83
2022/03/10 05:03:25;;;;;;;2.03;1.58;;;17.90;50.60;;;;;;5058320;28;20170;-84
2022/03/10 05:05:51;;;;;;;3.63;1.50;;;17.90;50.70;;;;;;5058290;28;20197;-85
2022/03/10 05:08:17;;;;;;;2.28;1.40;;;17.90;50.70;;;;;;5058294;28;20164;-83
2022/03/10 05:10:43;;;;;;;2.33;1.90;;;17.90;50.60;;;;;;5058058;28;20239;-84
2022/03/10 05:13:09;;;;;;;2.45;1.75;;;17.90;50.50;;;;;;5058307;28;20169;-84
2022/03/10 05:15:36;;;;;;;2.35;1.60;;;17.90;50.70;;;;;;5075850;28;20627;-85
2022/03/10 05:18:02;;;;;;;2.92;1.70;;;17.90;50.70;;;;;;5074501;28;20165;-83
2022/03/10 05:20:29;;;;;;;2.63;1.55;;;17.80;50.50;;;;;;5057869;28;20207;-85
2022/03/10 05:22:56;;;;;;;2.70;1.75;;;17.90;50.60;;;;;;5058222;28;20162;-85
2022/03/10 05:25:26;;;;;;;3.08;1.52;;;17.90;50.50;;;;;;5057880;28;20161;-85
2022/03/10 05:27:55;;;;;;;1.63;1.38;;;17.90;50.70;;;;;;5040942;28;20643;-84
2022/03/10 05:30:23;;;;;;;1.63;1.40;;;17.80;50.40;;;;;;5040439;28;20546;-85
2022/03/10 05:32:52;;;;;;;2.42;1.45;;;17.90;50.10;;;;;;5040464;28;20177;-85
2022/03/10 05:35:17;;;;;;;2.95;1.60;;;17.90;50.20;;;;;;5019405;28;20299;-84
2022/03/10 05:37:46;;;;;;;1.92;1.52;;;17.90;49.80;;;;;;5054206;28;20217;-85
2022/03/10 05:40:16;;;;;;;1.73;1.30;;;17.90;50.10;;;;;;5036856;28;20186;-85
2022/03/10 05:42:46;;;;;;;2.25;1.60;;;18.00;50.20;;;;;;5037370;28;20661;-85
2022/03/10 05:45:19;;;;;;;1.95;1.42;;;17.90;50.40;;;;;;5036961;28;20213;-84
2022/03/10 05:47:48;;;;;;;2.03;1.50;;;18.00;50.40;;;;;;5038299;28;20273;-83
2022/03/10 05:50:14;;;;;;;1.83;1.52;;;18.00;50.00;;;;;;5037021;28;20209;-83
2022/03/10 05:52:40;;;;;;;1.65;1.40;;;18.00;50.20;;;;;;5054097;28;20571;-85
2022/03/10 05:55:06;;;;;;;1.67;1.38;;;18.00;49.20;;;;;;5053925;28;20154;-85
2022/03/10 05:57:32;;;;;;;1.88;1.55;;;18.10;49.50;;;;;;5053875;28;20216;-85
2022/03/10 05:59:57;;;;;;;1.70;1.40;;;18.10;49.60;;;;;;5053810;28;20158;-84
2022/03/10 06:02:24;;;;;;;1.45;1.35;;;18.10;49.60;;;;;;5054620;28;20150;-84
2022/03/10 06:04:57;;;;;;;2.22;1.67;;;18.10;49.20;;;;;;5053711;28;20155;-85
2022/03/10 06:07:26;;;;;;;1.65;1.38;;;18.20;49.00;;;;;;5037163;28;20665;-84
2022/03/10 06:09:55;;;;;;;2.85;1.50;;;18.20;48.60;;;;;;5036465;28;20292;-84
2022/03/10 06:12:27;;;;;;;2.00;1.23;;;18.20;49.00;;;;;;5036404;28;20205;-84
2022/03/10 06:14:56;;;;;;;2.50;1.38;;;18.30;49.10;;;;;;5036696;28;20181;-83
2022/03/10 06:17:25;;;;;;;2.03;1.30;;;18.30;48.70;;;;;;5036311;28;20190;-84
2022/03/10 06:19:53;;;;;;;1.73;1.30;;;18.30;48.50;;;;;;5036161;28;20186;-85
2022/03/10 06:22:22;;;;;;;2.67;1.60;;;18.30;49.00;;;;;;5035960;28;20235;-83
2022/03/10 06:24:48;;;;;;;2.53;1.40;;;18.30;48.50;;;;;;5035923;28;20221;-84
2022/03/10 06:27:17;;;;;;;1.65;1.27;;;18.30;48.40;;;;;;5053246;28;20212;-84
2022/03/10 06:29:45;;;;;;;1.65;1.40;;;18.30;48.40;;;;;;5035905;28;20660;-83
2022/03/10 06:32:13;;;;;;;1.58;1.40;;;18.40;48.20;;;;;;5035968;28;20217;-84
2022/03/10 06:34:39;;;;;;;1.42;1.30;;;18.40;48.60;;;;;;5053757;28;20170;-83
2022/03/10 06:37:05;;;;;;;1.70;1.38;;;18.40;48.20;;;;;;5056617;28;20158;-84
2022/03/10 06:39:33;;;;;;;1.33;1.23;;;18.40;48.50;;;;;;5056471;28;20264;-84
2022/03/10 06:42:02;;;;;;;1.48;1.15;;;18.40;48.40;;;;;;5022812;28;20181;-83
2022/03/10 06:44:34;;;;;;;2.05;1.45;;;18.30;47.80;;;;;;5023225;28;20247;-83
2022/03/10 06:47:01;;;;;;;2.17;1.38;;;18.40;48.20;;;;;;5022940;28;20174;-84
2022/03/10 06:49:28;;;;;;;1.88;1.50;;;18.40;48.20;;;;;;5038875;28;20529;-84
2022/03/10 06:51:54;;;;;;;1.48;1.25;;;18.40;47.90;;;;;;5038936;28;20556;-83
2022/03/10 06:54:22;;;;;;;2.28;1.30;;;18.40;47.50;;;;;;5056244;28;20160;-83
2022/03/10 06:56:49;;;;;;;2.80;1.60;;;18.40;47.70;;;;;;5022049;28;20184;-83
2022/03/10 06:59:16;;;;;;;1.48;1.20;;;18.50;47.80;;;;;;5038639;28;20188;-83
2022/03/10 07:01:43;;;;;;;2.03;1.52;;;18.50;47.80;;;;;;5038701;28;20648;-83
2022/03/10 07:04:09;;;;;;;1.33;1.23;;;18.50;47.90;;;;;;5021922;28;20197;-82
2022/03/10 07:06:35;;;;;;;1.77;1.23;;;18.40;47.50;;;;;;5055853;28;20533;-82
2022/03/10 07:09:00;;;;;;;1.30;1.20;;;18.50;47.00;;;;;;5055887;28;20192;-83
2022/03/10 07:11:27;;;;;;;2.00;1.50;;;18.60;47.50;;;;;;5055828;28;20181;-83
2022/03/10 07:13:54;;;;;;;1.40;1.30;;;18.50;47.70;;;;;;5038212;28;20270;-84
2022/03/10 07:16:21;;;;;;;1.30;1.17;;;18.50;47.50;;;;;;5037950;28;20177;-84
2022/03/10 07:18:50;;;;;;;1.40;1.30;;;18.50;47.20;;;;;;5038605;28;20191;-82
2022/03/10 07:21:18;;;;;;;1.50;1.20;;;18.50;47.60;;;;;;5022700;28;20185;-84
2022/03/10 07:23:44;;;;;;;1.20;1.10;;;18.50;47.30;;;;;;5055761;28;20165;-83
2022/03/10 07:26:10;;;;;;;2.30;1.40;;;18.50;47.30;;;;;;5055757;28;20219;-83
2022/03/10 07:28:36;;;;;;;1.30;1.20;;;18.50;47.40;;;;;;5055671;28;20578;-84
2022/03/10 07:31:01;;;;;;;1.83;1.35;;;18.50;47.40;;;;;;5055523;28;20679;-82
2022/03/10 07:33:28;;;;;;;1.40;1.30;;;18.60;47.40;;;;;;5055638;28;20609;-85
2022/03/10 07:35:54;;;;;;;1.95;1.60;;;18.50;47.10;;;;;;5055377;28;20221;-82
2022/03/10 07:38:23;;;;;;;1.20;1.10;;;18.50;47.50;;;;;;5038832;28;20174;-83
2022/03/10 07:40:51;;;;;;;1.15;1.05;;;18.60;47.30;;;;;;5038192;28;20266;-85
2022/03/10 07:43:17;;;;;;;2.60;1.30;;;18.50;47.50;;;;;;5021767;28;20177;-83
2022/03/10 07:45:43;;;;;;;1.73;1.00;;;18.50;47.50;;;;;;5073233;28;20643;-85
2022/03/10 07:48:09;;;;;;;1.40;1.30;;;18.50;47.10;;;;;;5055314;28;20275;-83
2022/03/10 07:50:37;;;;;;;1.20;1.10;;;18.50;46.80;;;;;;5039710;28;20275;-84
2022/03/10 07:53:04;;;;;;;1.48;1.10;;;18.60;47.00;;;;;;5038081;28;20200;-82
2022/03/10 07:55:35;;;;;;;1.30;1.20;;;18.50;47.30;;;;;;5038185;28;20663;-84
2022/03/10 07:58:02;;;;;;;1.58;1.20;;;18.50;47.20;;;;;;5042571;28;20635;-84
2022/03/10 08:00:28;;;;;;;2.25;1.10;;;18.60;46.80;;;;;;5044296;28;20629;-84
2022/03/10 08:02:55;;;;;;;1.73;1.08;;;18.50;46.40;;;;;;5061987;28;20259;-83
2022/03/10 08:05:23;;;;;;;1.25;1.15;;;18.50;46.80;;;;;;5044526;28;20185;-83
2022/03/10 08:07:50;;;;;;;3.10;1.13;;;18.50;47.50;;;;;;5027775;28;20280;-83
2022/03/10 08:10:20;;;;;;;2.05;1.40;;;18.50;47.50;;;;;;5044375;28;20212;-84
2022/03/10 08:12:47;;;;;;;2.30;1.00;;;18.50;47.00;;;;;;5028095;28;20183;-85
2022/03/10 08:15:14;;;;;;;1.35;1.25;;;18.50;46.30;;;;;;5044116;28;20268;-84
2022/03/10 08:17:40;;;;;;;1.95;1.23;;;18.60;46.90;;;;;;5061666;28;20179;-84
2022/03/10 08:20:06;;;;;;;1.17;1.08;;;18.60;48.20;;;;;;5061606;28;20675;-83
2022/03/10 08:22:32;;;;;;;1.50;1.30;;;18.60;47.00;;;;;;5061672;28;20150;-83
2022/03/10 08:24:57;;;;;;;1.60;1.25;;;18.60;46.80;;;;;;5061728;28;20171;-83
2022/03/10 08:27:23;;;;;;;2.45;1.40;;;18.60;46.60;;;;;;5061710;28;20240;-85
2022/03/10 08:29:49;;;;;;;1.23;1.13;;;18.60;46.40;;;;;;5061656;28;20176;-84
2022/03/10 08:32:16;;;;;;;1.73;1.00;;;18.60;46.60;;;;;;5062603;28;20246;-84
2022/03/10 08:34:41;;;;;;;1.52;1.00;;;18.70;46.20;;;;;;5079684;28;20149;-82
2022/03/10 08:37:10;;;;;;;1.58;0.98;;;18.70;44.50;;;;;;5061879;28;20177;-82
2022/03/10 08:39:39;;;;;;;1.33;1.23;;;18.70;44.50;;;;;;5044378;28;20639;-84
2022/03/10 08:42:08;;;;;;;2.47;1.10;;;18.80;45.60;;;;;;5044361;28;20302;-83
2022/03/10 08:44:37;;;;;;;2.78;1.23;;;18.70;45.60;;;;;;5027897;28;20181;-83
2022/03/10 08:47:05;;;;;;;1.55;1.20;;;18.70;46.30;;;;;;5044316;28;20177;-85
2022/03/10 08:49:33;;;;;;;1.17;1.02;;;18.70;46.00;;;;;;5045076;28;20232;-82
2022/03/10 08:52:02;;;;;;;1.10;1.00;;;18.70;46.30;;;;;;5044368;28;20217;-85
2022/03/10 08:54:27;;;;;;;1.30;1.20;;;18.70;46.30;;;;;;5044681;28;20177;-83
2022/03/10 08:56:53;;;;;;;1.20;1.10;;;18.70;46.10;;;;;;5061612;28;20164;-82
2022/03/10 08:59:19;;;;;;;1.48;1.20;;;18.70;45.00;;;;;;5061698;28;20157;-84
2022/03/10 09:01:44;;;;;;;1.58;1.13;;;18.70;46.00;;;;;;5079774;28;20162;-84
2022/03/10 09:04:10;;;;;;;1.25;1.15;;;18.70;46.60;;;;;;5078375;28;20177;-86
2022/03/10 09:06:35;;;;;;;1.20;1.10;;;18.70;46.10;;;;;;5079798;28;20552;-84
2022/03/10 09:09:03;;;;;;;1.30;1.20;;;18.70;45.50;;;;;;5059409;28;20201;-84
2022/03/10 09:11:32;;;;;;;1.42;1.13;;;18.80;45.00;;;;;;5059340;28;20233;-83
2022/03/10 09:14:00;;;;;;;1.50;1.20;;;18.80;46.00;;;;;;5041482;28;20181;-83
2022/03/10 09:16:28;;;;;;;1.40;1.10;;;18.80;45.70;;;;;;5041373;28;20182;-82
2022/03/10 09:19:00;;;;;;;1.75;1.10;;;18.80;45.00;;;;;;5025142;28;20267;-84
2022/03/10 09:21:30;;;;;;;1.80;1.13;;;18.80;45.50;;;;;;5042085;28;20215;-84
2022/03/10 09:23:58;;;;;;;1.00;0.90;;;18.80;45.80;;;;;;5024871;28;20185;-82
2022/03/10 09:26:26;;;;;;;1.40;1.30;;;18.80;45.30;;;;;;5041390;28;20189;-83
2022/03/10 09:28:54;;;;;;;1.60;1.50;;;18.80;45.30;;;;;;5040686;28;20258;-82
2022/03/10 09:31:25;;;;;;;1.20;1.10;;;18.80;45.50;;;;;;5040692;28;20707;-84
2022/03/10 09:33:53;;;;;;;1.30;1.15;;;18.80;44.80;;;;;;5008656;28;20224;-83
2022/03/10 09:36:26;;;;;;;1.10;1.00;;;18.80;45.10;;;;;;5037824;28;20222;-84
2022/03/10 09:38:54;;;;;;;1.45;1.13;;;18.90;45.00;;;;;;5038595;28;20231;-83
2022/03/10 09:41:20;;;;;;;1.20;1.10;;;18.80;45.40;;;;;;5037384;28;20185;-85
2022/03/10 09:43:46;;;;;;;1.65;1.20;;;18.80;45.30;;;;;;5054887;28;20166;-85
2022/03/10 09:46:15;;;;;;;1.63;1.20;;;18.80;45.70;;;;;;5054771;28;20293;-85
2022/03/10 09:48:41;;;;;;;1.73;1.30;;;18.80;45.50;;;;;;5054418;28;20551;-83
2022/03/10 09:51:07;;;;;;;1.02;1.00;;;18.80;45.70;;;;;;5054496;28;20186;-83
2022/03/10 09:53:34;;;;;;;1.58;1.10;;;18.80;45.70;;;;;;5054901;28;20558;-84
2022/03/10 09:56:04;;;;;;;1.65;1.15;;;18.80;45.80;;;;;;5054075;28;20496;-83
2022/03/10 09:58:33;;;;;;;1.10;1.00;;;18.80;45.50;;;;;;5020419;28;20651;-84
2022/03/10 10:01:03;;;;;;;3.33;1.33;;;18.80;45.60;;;;;;5036704;28;20236;-83
2022/03/10 10:03:33;;;;;;;1.30;1.10;;;18.80;45.80;;;;;;5037305;28;20186;-84
2022/03/10 10:06:04;;;;;;;1.23;1.13;;;18.80;45.60;;;;;;5036931;28;20181;-85
2022/03/10 10:08:31;;;;;;;1.40;1.10;;;18.70;45.40;;;;;;5053316;28;20182;-83
2022/03/10 10:11:00;;;;;;;2.05;1.30;;;18.80;45.80;;;;;;5055114;28;20269;-84
2022/03/10 10:13:30;;;;;;;1.27;1.02;;;18.80;45.70;;;;;;5039410;28;20599;-85
2022/03/10 10:16:04;;;;;;;1.52;1.40;;;18.80;45.50;;;;;;5056108;28;20201;-84
2022/03/10 10:18:29;;;;;;;1.27;1.17;;;18.80;45.50;;;;;;5036127;28;20200;-84
2022/03/10 10:20:55;;;;;;;1.05;1.00;;;18.80;45.70;;;;;;5020845;28;20183;-85
2022/03/10 10:23:33;;;;;;;1.55;1.20;;;18.90;45.70;;;;;;5018681;28;20167;-85
2022/03/10 10:26:03;;;;;;;1.30;1.15;;;18.90;45.40;;;;;;5023051;28;20155;-83
2022/03/10 10:28:31;;;;;;;2.50;1.50;;;18.90;45.60;;;;;;5018173;28;20259;-84
2022/03/10 10:31:02;;;;;;;1.40;1.30;;;18.90;45.50;;;;;;5019970;28;20281;-83
2022/03/10 10:33:29;;;;;;;1.27;1.17;;;18.80;45.50;;;;;;5023731;28;20181;-84
2022/03/10 10:36:25;;;;;;;1.52;1.20;;;18.90;45.10;;;;;;5028748;28;20298;-83
2022/03/10 10:39:11;;;;;;;1.40;1.17;;;18.80;44.70;;;;;;5033803;28;20189;-83
2022/03/10 10:41:40;;;;;;;2.17;1.30;;;18.90;44.90;;;;;;5012338;28;20183;-84
2022/03/10 10:44:08;;;;;;;1.73;1.20;;;18.90;44.60;;;;;;5009987;28;20175;-85
2022/03/10 10:46:39;;;;;;;1.40;1.30;;;19.00;44.40;;;;;;5026863;28;20179;-84
2022/03/10 10:49:07;;;;;;;2.42;1.30;;;19.00;44.60;;;;;;5026965;28;20147;-85
2022/03/10 10:51:35;;;;;;;1.77;1.15;;;19.00;44.70;;;;;;5010060;28;20195;-84
2022/03/10 10:54:23;;;;;;;1.88;1.38;;;19.00;44.50;;;;;;5025943;28;20278;-84
2022/03/10 10:56:52;;;;;;;1.38;1.20;;;19.00;44.70;;;;;;5024444;28;20190;-86
2022/03/10 10:59:41;;;;;;;1.70;1.48;;;19.00;44.60;;;;;;5023281;28;20667;-84
2022/03/10 11:02:11;;;;;;;2.10;1.30;;;19.00;44.30;;;;;;5014101;28;20197;-86
2022/03/10 11:04:46;;;;;;;1.65;1.35;;;19.00;44.20;;;;;;5035799;28;20155;-83
2022/03/10 11:07:12;;;;;;;2.60;1.30;;;19.00;44.40;;;;;;5039534;28;20160;-84
2022/03/10 11:09:39;;;;;;;1.65;1.45;;;19.10;44.80;;;;;;5038666;28;20238;-86
2022/03/10 11:12:05;;;;;;;1.50;1.40;;;19.00;44.60;;;;;;5037536;28;20214;-83
2022/03/10 11:14:31;;;;;;;2.60;1.30;;;19.10;45.00;;;;;;5036864;28;20201;-84
2022/03/10 11:16:59;;;;;;;1.67;1.33;;;19.00;45.10;;;;;;5035352;28;20181;-84
2022/03/10 11:19:31;;;;;;;1.60;1.27;;;19.00;45.10;;;;;;5023859;28;20689;-84
2022/03/10 11:22:24;;;;;;;1.40;1.30;;;19.00;44.30;;;;;;5004272;28;20182;-85
2022/03/10 11:25:00;;;;;;;1.40;1.30;;;18.90;44.50;;;;;;5010795;28;20186;-83
2022/03/10 11:28:04;;;;;;;1.45;1.30;;;19.10;44.20;;;;;;5045945;28;20157;-85
2022/03/10 11:30:32;;;;;;;2.03;1.50;;;19.10;44.60;;;;;;5045385;28;20194;-83
2022/03/10 11:33:05;;;;;;;1.20;1.10;;;19.10;44.80;;;;;;5028509;28;20213;-83
2022/03/10 11:35:32;;;;;;;2.92;1.60;;;19.00;45.10;;;;;;5034479;28;20229;-83
2022/03/10 11:38:02;;;;;;;1.48;1.25;;;19.00;45.00;;;;;;5055312;28;20227;-84
2022/03/10 11:40:44;;;;;;;1.48;1.15;;;19.00;44.60;;;;;;5036613;28;20564;-84
2022/03/10 11:43:17;;;;;;;1.40;1.30;;;19.00;44.60;;;;;;5054506;28;20181;-84
2022/03/10 11:45:43;;;;;;;1.90;1.45;;;19.10;44.00;;;;;;5036609;28;20173;-84
2022/03/10 11:48:33;;;;;;;2.80;1.67;;;19.10;44.50;;;;;;5053504;28;20173;-83
2022/03/10 11:51:03;;;;;;;1.60;1.50;;;19.10;44.70;;;;;;5053207;28;20667;-85
2022/03/10 11:53:29;;;;;;;2.35;1.17;;;19.10;44.50;;;;;;5054392;28;20163;-84
2022/03/10 11:55:55;;;;;;;2.78;1.70;;;19.00;44.70;;;;;;5052944;28;20248;-84
2022/03/10 11:58:35;;;;;;;1.65;1.30;;;19.10;44.80;;;;;;5052803;28;20169;-84
2022/03/10 12:01:02;;;;;;;2.13;1.63;;;19.10;44.80;;;;;;5053519;28;20180;-84
2022/03/10 12:03:46;;;;;;;2.47;1.40;;;19.10;44.70;;;;;;5061303;28;20158;-83
2022/03/10 12:06:16;;;;;;;1.77;1.35;;;19.10;45.20;;;;;;5054139;28;20640;-84
2022/03/10 12:08:42;;;;;;;3.00;1.42;;;19.10;44.70;;;;;;5053425;28;20181;-83
2022/03/10 12:11:15;;;;;;;1.98;1.42;;;19.10;44.70;;;;;;5053054;28;20193;-82
2022/03/10 12:13:44;;;;;;;1.60;1.30;;;19.10;45.30;;;;;;5052355;28;20173;-83
2022/03/10 12:16:37;;;;;;;1.75;1.50;;;19.20;44.40;;;;;;5052347;28;20176;-84
2022/03/10 12:19:03;;;;;;;1.80;1.33;;;19.10;44.60;;;;;;5052258;28;20170;-83
2022/03/10 12:21:30;;;;;;;1.83;1.30;;;19.10;44.80;;;;;;5053670;28;20219;-85
2022/03/10 12:23:57;;;;;;;2.20;1.60;;;19.00;44.90;;;;;;5051911;28;20582;-83
2022/03/10 12:26:26;;;;;;;1.90;1.60;;;19.00;44.90;;;;;;5035869;28;20644;-84
2022/03/10 12:28:53;;;;;;;1.88;1.48;;;19.10;44.20;;;;;;5053221;28;20540;-84
2022/03/10 12:31:19;;;;;;;1.60;1.35;;;19.10;45.00;;;;;;5053753;28;20251;-84
2022/03/10 12:33:51;;;;;;;2.45;1.30;;;19.10;44.40;;;;;;5038124;28;20201;-86
2022/03/10 12:36:36;;;;;;;2.53;1.20;;;19.10;44.60;;;;;;5037464;28;20248;-83
2022/03/10 12:39:15;;;;;;;1.73;1.30;;;19.10;44.40;;;;;;5059121;28;20166;-84
2022/03/10 12:41:50;;;;;;;1.50;1.30;;;19.10;44.20;;;;;;5058191;28;20150;-83
2022/03/10 12:44:18;;;;;;;1.60;1.48;;;19.10;44.20;;;;;;5041518;28;20192;-83
2022/03/10 12:46:44;;;;;;;1.55;1.20;;;19.10;44.00;;;;;;5060273;28;20162;-85
2022/03/10 12:49:24;;;;;;;1.50;1.40;;;19.10;44.20;;;;;;5061344;28;20473;-84
2022/03/10 12:51:57;;;;;;;1.30;1.20;;;19.10;44.10;;;;;;5059394;28;20221;-84
2022/03/10 12:54:26;;;;;;;1.70;1.38;;;19.20;44.10;;;;;;5053943;28;20181;-83
2022/03/10 12:56:54;;;;;;;1.80;1.50;;;19.20;44.10;;;;;;5068568;28;20236;-84
2022/03/10 12:59:30;;;;;;;2.20;1.40;;;19.20;44.10;;;;;;5010059;28;20179;-85